createdAt,value
2019-02-27T00:01:24.977Z,6.57
2019-02-27T00:03:59.814Z,6.30
2019-02-27T00:06:29.128Z,5.90
2019-02-27T00:08:57.891Z,5.47
2019-02-27T00:11:27.502Z,6.05
2019-02-27T00:13:57.647Z,6.10
2019-02-27T00:16:29.785Z,5.55
2019-02-27T00:18:59.461Z,5.80
2019-02-27T00:21:27.163Z,5.93
2019-02-27T00:23:56.951Z,6.00
2019-02-27T00:26:25.463Z,6.35
2019-02-27T00:28:55.985Z,6.33
2019-02-27T00:31:23.324Z,7.00
2019-02-27T00:33:51.398Z,6.00
2019-02-27T00:36:20.594Z,6.53
2019-02-27T00:38:48.786Z,6.60
2019-02-27T00:41:17.175Z,5.90
2019-02-27T00:43:45.618Z,6.22
2019-02-27T00:46:16.155Z,5.70
2019-02-27T00:48:44.197Z,5.53
2019-02-27T00:51:13.860Z,5.95
2019-02-27T00:53:42.799Z,6.05
2019-02-27T00:56:12.281Z,5.67
2019-02-27T00:58:41.297Z,5.43
2019-02-27T01:01:12.416Z,5.77
2019-02-27T01:03:41.182Z,5.90
2019-02-27T01:06:09.062Z,6.23
2019-02-27T01:08:40.249Z,7.62
2019-02-27T01:11:08.160Z,6.33
2019-02-27T01:13:36.787Z,6.50
2019-02-27T01:16:05.692Z,6.20
2019-02-27T01:18:35.076Z,5.83
2019-02-27T01:21:03.689Z,6.33
2019-02-27T01:23:32.864Z,6.00
2019-02-27T01:26:01.505Z,5.65
2019-02-27T01:28:30.517Z,5.22
2019-02-27T01:31:01.228Z,5.55
2019-02-27T01:33:31.407Z,5.17
2019-02-27T01:35:59.368Z,4.83
2019-02-27T01:38:28.035Z,5.87
2019-02-27T01:40:56.597Z,5.40
2019-02-27T01:43:25.647Z,6.70
2019-02-27T01:45:54.306Z,6.50
2019-02-27T01:48:23.188Z,6.13
2019-02-27T01:50:54.920Z,6.30
2019-02-27T01:53:21.861Z,6.37
2019-02-27T01:55:49.614Z,6.47
2019-02-27T01:58:18.008Z,6.17
2019-02-27T02:00:45.844Z,6.35
2019-02-27T02:03:14.664Z,5.67
2019-02-27T02:05:44.152Z,5.70
2019-02-27T02:08:13.949Z,5.30
2019-02-27T02:10:43.467Z,5.20
2019-02-27T02:13:48.291Z,5.37
2019-02-27T02:16:36.893Z,6.37
2019-02-27T02:20:27.025Z,6.95
2019-02-27T02:23:54.210Z,5.93
2019-02-27T02:27:21.672Z,6.78
2019-02-27T02:31:21.906Z,5.90
2019-02-27T02:34:51.650Z,5.05
2019-02-27T02:38:12.129Z,6.33
2019-02-27T02:41:51.244Z,5.43
2019-02-27T02:45:25.524Z,6.85
2019-02-27T02:48:35.062Z,5.35
2019-02-27T02:52:04.702Z,6.30
2019-02-27T02:55:32.324Z,6.40
2019-02-27T02:58:38.083Z,5.80
2019-02-27T03:02:06.846Z,5.97
2019-02-27T03:05:43.667Z,5.43
2019-02-27T03:08:21.435Z,5.80
2019-02-27T03:11:43.883Z,5.53
2019-02-27T03:14:54.533Z,5.85
2019-02-27T03:18:30.546Z,6.27
2019-02-27T03:22:24.560Z,6.27
2019-02-27T03:25:52.943Z,5.90
2019-02-27T03:32:41.291Z,5.17
2019-02-27T03:35:45.610Z,5.40
2019-02-27T03:38:45.825Z,5.83
2019-02-27T03:42:01.982Z,5.90
2019-02-27T03:45:06.062Z,5.57
2019-02-27T03:48:15.073Z,6.55
2019-02-27T03:51:24.686Z,5.70
2019-02-27T03:54:43.503Z,5.75
2019-02-27T03:57:38.137Z,6.00
2019-02-27T04:00:37.228Z,5.50
2019-02-27T04:03:57.958Z,5.58
2019-02-27T04:07:23.895Z,6.57
2019-02-27T04:09:55.404Z,5.40
2019-02-27T04:12:22.397Z,5.70
2019-02-27T04:14:49.426Z,5.10
2019-02-27T04:17:26.364Z,6.80
2019-02-27T04:19:53.436Z,6.83
2019-02-27T04:22:20.726Z,6.70
2019-02-27T04:24:48.075Z,6.53
2019-02-27T04:27:20.080Z,5.87
2019-02-27T04:29:44.065Z,6.60
2019-02-27T04:32:12.501Z,6.05
2019-02-27T04:34:40.757Z,6.30
2019-02-27T04:37:08.730Z,5.60
2019-02-27T04:39:55.395Z,5.80
2019-02-27T04:42:22.981Z,5.63
2019-02-27T04:44:51.885Z,5.62
2019-02-27T04:47:19.517Z,5.17
2019-02-27T04:49:47.063Z,5.55
2019-02-27T04:52:14.825Z,5.63
2019-02-27T04:54:42.846Z,6.40
2019-02-27T04:57:10.757Z,6.30
2019-02-27T04:59:38.873Z,6.40
2019-02-27T05:02:07.344Z,7.08
2019-02-27T05:04:35.767Z,5.95
2019-02-27T05:07:04.124Z,6.83
2019-02-27T05:09:34.143Z,6.40
2019-02-27T05:12:02.031Z,6.13
2019-02-27T05:14:30.957Z,5.50
2019-02-27T05:16:59.718Z,5.30
2019-02-27T05:19:27.452Z,5.20
2019-02-27T05:21:56.066Z,5.35
2019-02-27T05:24:24.163Z,5.90
2019-02-27T05:26:54.474Z,6.10
2019-02-27T05:29:22.462Z,5.60
2019-02-27T05:31:53.245Z,6.10
2019-02-27T05:34:21.389Z,6.50
2019-02-27T05:36:49.511Z,6.17
2019-02-27T05:39:20.777Z,6.33
2019-02-27T05:41:49.395Z,6.50
2019-02-27T05:44:21.440Z,6.15
2019-02-27T05:46:47.976Z,6.55
2019-02-27T05:49:15.686Z,6.27
2019-02-27T05:51:44.191Z,6.03
2019-02-27T05:54:12.257Z,5.57
2019-02-27T05:56:40.720Z,5.67
2019-02-27T05:59:08.366Z,5.78
2019-02-27T06:01:38.132Z,5.80
2019-02-27T06:04:07.252Z,6.15
2019-02-27T06:06:35.722Z,6.05
2019-02-27T06:09:05.380Z,6.17
2019-02-27T06:11:33.209Z,6.58
2019-02-27T06:14:01.677Z,6.65
2019-02-27T06:16:31.509Z,6.70
2019-02-27T06:19:00.555Z,6.85
2019-02-27T06:21:28.338Z,6.92
2019-02-27T06:23:58.214Z,6.40
2019-02-27T06:26:27.091Z,6.40
2019-02-27T06:28:56.292Z,6.50
2019-02-27T06:31:24.983Z,6.00
2019-02-27T06:33:53.319Z,6.33
2019-02-27T06:36:21.072Z,5.73
2019-02-27T06:38:49.290Z,5.40
2019-02-27T06:41:16.995Z,5.40
2019-02-27T06:43:47.067Z,5.60
2019-02-27T06:46:17.352Z,6.10
2019-02-27T06:48:46.388Z,6.12
2019-02-27T06:51:14.767Z,6.13
2019-02-27T06:53:44.112Z,6.30
2019-02-27T06:56:13.353Z,6.17
2019-02-27T06:58:41.041Z,6.10
2019-02-27T07:01:11.263Z,6.05
2019-02-27T07:03:39.363Z,7.45
2019-02-27T07:06:07.143Z,6.28
2019-02-27T07:08:37.902Z,6.15
2019-02-27T07:11:10.633Z,5.78
2019-02-27T07:13:35.897Z,5.70
2019-02-27T07:16:04.242Z,5.33
2019-02-27T07:18:33.047Z,5.90
2019-02-27T07:21:01.507Z,5.92
2019-02-27T07:23:30.019Z,5.55
2019-02-27T07:26:00.002Z,5.25
2019-02-27T07:28:28.691Z,5.53
2019-02-27T07:30:57.059Z,5.42
2019-02-27T07:33:25.434Z,5.65
2019-02-27T07:35:53.911Z,5.42
2019-02-27T07:38:22.519Z,6.25
2019-02-27T07:40:50.825Z,5.62
2019-02-27T07:43:19.508Z,5.90
2019-02-27T07:45:47.216Z,5.95
2019-02-27T07:48:15.696Z,6.25
2019-02-27T07:50:48.358Z,5.95
2019-02-27T07:53:17.413Z,6.30
2019-02-27T07:55:43.500Z,6.37
2019-02-27T07:58:11.808Z,7.15
2019-02-27T08:00:39.474Z,7.53
2019-02-27T08:03:09.883Z,8.43
2019-02-27T08:05:37.003Z,8.93
2019-02-27T08:08:05.053Z,8.38
2019-02-27T08:10:36.753Z,8.90
2019-02-27T08:13:03.253Z,10.65
2019-02-27T08:15:31.326Z,10.03
2019-02-27T08:18:01.211Z,10.03
2019-02-27T08:20:30.999Z,10.08
2019-02-27T08:23:01.510Z,11.00
2019-02-27T08:25:30.027Z,12.07
2019-02-27T08:27:59.083Z,10.45
2019-02-27T08:30:27.459Z,11.35
2019-02-27T08:32:55.731Z,10.20
2019-02-27T08:35:23.467Z,11.63
2019-02-27T08:38:02.196Z,10.70
2019-02-27T08:40:26.416Z,12.07
2019-02-27T08:43:10.264Z,12.20
2019-02-27T08:45:41.469Z,11.50
2019-02-27T08:48:10.788Z,11.90
2019-02-27T08:50:39.784Z,10.93
2019-02-27T08:53:06.960Z,11.00
2019-02-27T08:55:39.062Z,12.20
2019-02-27T08:58:07.230Z,12.63
2019-02-27T09:00:34.877Z,11.90
2019-02-27T09:03:03.681Z,11.15
2019-02-27T09:05:32.863Z,10.50
2019-02-27T09:08:02.298Z,11.20
2019-02-27T09:10:30.983Z,10.90
2019-02-27T09:15:28.763Z,10.40
2019-02-27T09:17:56.288Z,11.10
2019-02-27T09:20:24.362Z,10.60
2019-02-27T09:22:53.235Z,10.55
2019-02-27T09:25:24.684Z,10.72
2019-02-27T09:27:53.338Z,10.10
2019-02-27T09:30:20.854Z,10.87
2019-02-27T09:32:49.046Z,10.13
2019-02-27T09:35:16.394Z,11.90
2019-02-27T09:37:43.793Z,10.53
2019-02-27T09:40:14.670Z,10.40
2019-02-27T09:42:42.256Z,10.65
2019-02-27T09:45:20.469Z,10.13
2019-02-27T09:47:48.937Z,8.60
2019-02-27T09:50:41.581Z,10.00
2019-02-27T09:53:09.647Z,10.03
2019-02-27T09:55:37.214Z,9.20
2019-02-27T09:58:09.906Z,9.80
2019-02-27T10:00:37.791Z,9.63
2019-02-27T10:03:05.631Z,9.00
2019-02-27T10:05:36.327Z,8.95
2019-02-27T10:08:03.879Z,8.97
2019-02-27T10:10:51.559Z,8.20
2019-02-27T10:13:18.717Z,8.60
2019-02-27T10:15:46.147Z,8.60
2019-02-27T10:18:18.327Z,7.97
2019-02-27T10:20:43.239Z,8.93
2019-02-27T10:23:10.313Z,8.10
2019-02-27T10:25:38.247Z,8.15
2019-02-27T10:28:05.922Z,7.87
2019-02-27T10:30:33.523Z,7.37
2019-02-27T10:33:03.182Z,7.72
2019-02-27T10:35:30.582Z,8.00
2019-02-27T10:37:58.523Z,8.25
2019-02-27T10:40:25.700Z,8.33
2019-02-27T10:42:52.875Z,8.73
2019-02-27T10:45:21.549Z,8.10
2019-02-27T10:47:50.948Z,9.00
2019-02-27T10:50:18.311Z,8.37
2019-02-27T10:52:49.945Z,8.33
2019-02-27T10:55:17.980Z,7.43
2019-02-27T10:57:45.626Z,7.17
2019-02-27T11:00:31.728Z,7.10
2019-02-27T11:02:58.800Z,7.67
2019-02-27T11:05:27.013Z,6.85
2019-02-27T11:07:54.047Z,7.33
2019-02-27T11:10:21.881Z,7.30
2019-02-27T11:12:49.411Z,7.67
2019-02-27T11:15:17.211Z,7.63
2019-02-27T11:17:45.324Z,7.60
2019-02-27T11:20:13.082Z,7.28
2019-02-27T11:22:40.919Z,7.30
2019-02-27T11:25:12.185Z,6.53
2019-02-27T11:27:39.739Z,6.25
2019-02-27T11:30:16.507Z,7.10
2019-02-27T11:32:43.875Z,6.22
2019-02-27T11:35:11.234Z,5.60
2019-02-27T11:37:38.787Z,5.85
2019-02-27T11:40:08.507Z,6.23
2019-02-27T11:42:36.039Z,5.43
2019-02-27T11:45:03.632Z,5.85
2019-02-27T11:47:31.000Z,5.87
2019-02-27T11:49:58.970Z,5.77
2019-02-27T11:52:28.640Z,5.87
2019-02-27T11:54:56.339Z,6.00
2019-02-27T11:57:24.176Z,6.33
2019-02-27T11:59:51.958Z,5.70
2019-02-27T12:02:28.593Z,6.40
2019-02-27T12:04:55.394Z,6.47
2019-02-27T12:07:22.595Z,5.80
2019-02-27T12:09:49.756Z,5.87
2019-02-27T12:12:17.346Z,4.80
2019-02-27T12:14:45.157Z,4.70
2019-02-27T12:17:13.860Z,4.87
2019-02-27T12:19:44.538Z,4.90
2019-02-27T12:22:10.529Z,5.20
2019-02-27T12:24:38.474Z,4.40
2019-02-27T12:27:07.302Z,4.70
2019-02-27T12:29:34.419Z,4.90
2019-02-27T12:32:02.472Z,4.97
2019-02-27T12:34:29.685Z,5.03
2019-02-27T12:36:56.983Z,5.28
2019-02-27T12:39:24.069Z,5.10
2019-02-27T12:42:11.065Z,5.35
2019-02-27T12:44:38.677Z,5.15
2019-02-27T12:47:06.285Z,4.30
2019-02-27T12:49:33.418Z,5.57
2019-02-27T12:52:00.494Z,4.12
2019-02-27T12:54:27.599Z,4.17
2019-02-27T12:56:54.662Z,4.05
2019-02-27T12:59:21.747Z,4.20
2019-02-27T13:01:51.675Z,4.10
2019-02-27T13:04:19.986Z,4.20
2019-02-27T13:06:47.371Z,3.90
2019-02-27T13:09:14.460Z,4.03
2019-02-27T13:11:44.890Z,4.40
2019-02-27T13:14:10.978Z,4.10
2019-02-27T13:16:39.023Z,3.40
2019-02-27T13:19:25.706Z,4.25
2019-02-27T13:21:55.159Z,4.17
2019-02-27T13:24:22.692Z,4.00
2019-02-27T13:26:50.323Z,3.92
2019-02-27T13:29:37.359Z,3.80
2019-02-27T13:32:04.538Z,3.60
2019-02-27T13:34:32.044Z,3.37
2019-02-27T13:36:59.630Z,3.40
2019-02-27T13:39:26.981Z,3.20
2019-02-27T13:41:54.354Z,3.37
2019-02-27T13:44:21.935Z,3.70
2019-02-27T13:46:49.559Z,3.70
2019-02-27T13:49:16.893Z,3.20
2019-02-27T13:51:44.743Z,3.60
2019-02-27T13:54:12.113Z,3.90
2019-02-27T13:56:41.491Z,3.80
2019-02-27T13:59:10.896Z,3.20
2019-02-27T14:01:38.617Z,2.80
2019-02-27T14:04:06.029Z,3.70
2019-02-27T14:06:33.610Z,3.23
2019-02-27T14:09:00.958Z,4.00
2019-02-27T14:11:28.314Z,3.33
2019-02-27T14:13:56.907Z,3.37
2019-02-27T14:16:24.652Z,3.25
2019-02-27T14:18:54.154Z,3.20
2019-02-27T14:21:21.417Z,3.17
2019-02-27T14:23:48.874Z,3.25
2019-02-27T14:26:16.226Z,3.07
2019-02-27T14:28:43.258Z,2.60
2019-02-27T14:31:10.590Z,3.58
2019-02-27T14:33:57.274Z,3.07
2019-02-27T14:36:24.645Z,3.20
2019-02-27T14:38:53.331Z,3.65
2019-02-27T14:41:21.649Z,3.50
2019-02-27T14:43:49.368Z,3.27
2019-02-27T14:46:17.911Z,3.02
2019-02-27T14:48:45.963Z,3.30
2019-02-27T14:51:13.934Z,3.35
2019-02-27T14:53:41.698Z,3.30
2019-02-27T14:56:10.210Z,3.10
2019-02-27T14:58:38.535Z,3.75
2019-02-27T15:01:05.890Z,5.20
2019-02-27T15:03:33.565Z,5.30
2019-02-27T15:06:00.925Z,5.58
2019-02-27T15:08:27.996Z,5.00
2019-02-27T15:10:56.041Z,6.30
2019-02-27T15:13:27.955Z,5.07
2019-02-27T15:15:52.662Z,5.10
2019-02-27T15:18:22.423Z,5.83
2019-02-27T15:20:49.874Z,5.58
2019-02-27T15:23:17.214Z,5.20
2019-02-27T15:25:45.193Z,4.27
2019-02-27T15:28:12.186Z,6.28
2019-02-27T15:30:40.547Z,5.97
2019-02-27T15:33:07.632Z,6.42
2019-02-27T15:35:35.097Z,7.40
2019-02-27T15:38:02.768Z,6.80
2019-02-27T15:40:30.237Z,5.90
2019-02-27T15:42:58.138Z,6.92
2019-02-27T15:45:25.954Z,5.75
2019-02-27T15:47:53.852Z,5.75
2019-02-27T15:50:23.441Z,5.23
2019-02-27T15:52:52.114Z,4.90
2019-02-27T15:55:24.661Z,4.53
2019-02-27T15:57:55.041Z,4.90
2019-02-27T16:00:22.562Z,5.27
2019-02-27T16:02:49.996Z,5.23
2019-02-27T16:05:17.243Z,4.65
2019-02-27T16:07:48.481Z,4.40
2019-02-27T16:10:16.713Z,4.20
2019-02-27T16:12:44.148Z,4.50
2019-02-27T16:15:11.422Z,4.40
2019-02-27T16:17:39.042Z,4.60
2019-02-27T16:20:09.915Z,7.15
2019-02-27T16:22:37.668Z,7.33
2019-02-27T16:25:06.657Z,6.45
2019-02-27T16:27:35.720Z,5.60
2019-02-27T16:30:24.209Z,5.63
2019-02-27T16:32:52.974Z,6.12
2019-02-27T16:35:20.411Z,6.78
2019-02-27T16:39:17.166Z,6.40
2019-02-27T16:41:45.139Z,6.00
2019-02-27T16:44:13.326Z,6.90
2019-02-27T16:46:44.560Z,5.80
2019-02-27T16:49:10.911Z,5.60
2019-02-27T16:51:38.147Z,5.20
2019-02-27T16:54:05.407Z,5.00
2019-02-27T16:56:32.868Z,5.50
2019-02-27T16:59:00.825Z,5.45
2019-02-27T17:01:29.588Z,4.80
2019-02-27T17:04:00.386Z,5.12
2019-02-27T17:06:27.083Z,5.17
2019-02-27T17:08:54.110Z,4.25
2019-02-27T17:11:21.734Z,3.92
2019-02-27T17:13:49.435Z,4.60
2019-02-27T17:16:17.818Z,4.90
2019-02-27T17:18:44.802Z,6.65
2019-02-27T17:21:12.714Z,7.77
2019-02-27T17:23:43.795Z,6.67
2019-02-27T17:26:10.133Z,7.10
2019-02-27T17:28:38.096Z,6.92
2019-02-27T17:31:05.408Z,7.23
2019-02-27T17:36:15.076Z,6.78
2019-02-27T17:38:45.277Z,6.00
2019-02-27T17:41:14.092Z,6.10
2019-02-27T17:43:42.553Z,6.23
2019-02-27T17:46:11.231Z,6.00
2019-02-27T17:48:40.194Z,5.80
2019-02-27T17:51:09.741Z,5.00
2019-02-27T17:53:38.253Z,5.60
2019-02-27T17:56:06.765Z,5.57
2019-02-27T17:58:35.710Z,6.28
2019-02-27T18:01:05.372Z,6.07
2019-02-27T18:03:36.605Z,6.08
2019-02-27T18:06:04.266Z,6.53
2019-02-27T18:08:33.999Z,6.83
2019-02-27T18:11:04.106Z,6.60
2019-02-27T18:13:35.335Z,6.75
2019-02-27T18:18:10.438Z,6.70
2019-02-27T18:20:37.105Z,5.87
2019-02-27T18:23:04.782Z,5.10
2019-02-27T18:25:32.069Z,5.80
2019-02-27T18:27:59.954Z,5.45
2019-02-27T18:30:27.614Z,5.97
2019-02-27T18:32:57.821Z,4.35
2019-02-27T18:35:28.478Z,4.50
2019-02-27T18:37:55.999Z,5.30
2019-02-27T18:40:24.435Z,4.50
2019-02-27T18:42:56.479Z,5.60
2019-02-27T18:45:23.101Z,5.70
2019-02-27T18:47:50.900Z,6.10
2019-02-27T18:50:20.450Z,5.80
2019-02-27T18:52:49.486Z,6.75
2019-02-27T18:55:17.533Z,5.65
2019-02-27T18:57:47.176Z,5.43
2019-02-27T19:00:20.060Z,5.58
2019-02-27T19:02:51.944Z,5.03
2019-02-27T19:05:19.260Z,4.70
2019-02-27T19:07:47.951Z,5.00
2019-02-27T19:10:16.970Z,5.10
2019-02-27T19:12:46.220Z,4.93
2019-02-27T19:15:16.907Z,5.37
2019-02-27T19:17:45.606Z,5.20
2019-02-27T19:20:18.016Z,4.90
2019-02-27T19:22:46.462Z,5.93
2019-02-27T19:25:16.046Z,6.00
2019-02-27T19:27:44.197Z,5.53
2019-02-27T19:30:14.287Z,6.67
2019-02-27T19:32:43.197Z,6.30
2019-02-27T19:35:11.973Z,5.97
2019-02-27T19:37:40.044Z,6.90
2019-02-27T19:40:10.676Z,6.00
2019-02-27T19:42:48.273Z,5.50
2019-02-27T19:45:16.984Z,5.40
2019-02-27T19:47:44.944Z,5.43
2019-02-27T19:50:12.740Z,5.40
2019-02-27T19:52:40.481Z,6.15
2019-02-27T19:55:08.389Z,5.20
2019-02-27T19:57:36.437Z,5.85
2019-02-27T20:00:05.151Z,5.00
2019-02-27T20:02:32.958Z,6.35
2019-02-27T20:05:01.102Z,6.20
2019-02-27T20:07:29.902Z,5.95
2019-02-27T20:09:58.663Z,6.72
2019-02-27T20:12:26.404Z,6.75
2019-02-27T20:14:54.478Z,6.20
2019-02-27T20:17:22.690Z,6.17
2019-02-27T20:19:51.598Z,6.12
2019-02-27T20:22:20.860Z,5.70
2019-02-27T20:24:48.741Z,6.15
2019-02-27T20:27:17.000Z,5.83
2019-02-27T20:29:45.444Z,6.28
2019-02-27T20:32:13.390Z,5.08
2019-02-27T20:34:42.592Z,5.00
2019-02-27T20:37:12.545Z,6.08
2019-02-27T20:39:40.373Z,5.90
2019-02-27T20:42:08.735Z,6.33
2019-02-27T20:44:37.322Z,6.97
2019-02-27T20:47:06.602Z,6.73
2019-02-27T20:49:34.381Z,8.75
2019-02-27T20:52:02.739Z,10.10
2019-02-27T20:54:31.731Z,8.77
2019-02-27T20:57:00.418Z,7.20
2019-02-27T20:59:28.755Z,6.40
2019-02-27T21:01:58.104Z,6.35
2019-02-27T21:04:25.930Z,6.03
2019-02-27T21:06:55.683Z,5.97
2019-02-27T21:09:24.510Z,6.10
2019-02-27T21:11:52.577Z,6.83
2019-02-27T21:14:23.637Z,5.80
2019-02-27T21:16:52.251Z,6.45
2019-02-27T21:19:21.335Z,6.53
2019-02-27T21:21:53.384Z,6.30
2019-02-27T21:24:19.839Z,7.00
2019-02-27T21:26:48.355Z,6.20
2019-02-27T21:29:16.660Z,6.72
2019-02-27T21:31:46.039Z,6.55
2019-02-27T21:34:19.279Z,6.37
2019-02-27T21:36:44.264Z,6.63
2019-02-27T21:39:12.690Z,6.22
2019-02-27T21:41:42.292Z,6.37
2019-02-27T21:44:11.817Z,5.40
2019-02-27T21:46:39.932Z,6.08
2019-02-27T21:49:08.474Z,6.03
2019-02-27T21:51:37.000Z,6.08
2019-02-27T21:54:05.225Z,6.10
2019-02-27T21:56:32.713Z,6.50
2019-02-27T21:59:04.907Z,6.00
2019-02-27T22:01:30.197Z,6.85
2019-02-27T22:03:58.353Z,5.75
2019-02-27T22:06:27.479Z,6.93
2019-02-27T22:08:56.114Z,6.85
2019-02-27T22:11:24.185Z,7.50
2019-02-27T22:13:54.195Z,6.90
2019-02-27T22:16:22.828Z,6.60
2019-02-27T22:18:52.610Z,6.55
2019-02-27T22:21:20.432Z,6.72
2019-02-27T22:23:49.259Z,6.03
2019-02-27T22:26:17.275Z,6.10
2019-02-27T22:28:45.975Z,6.85
2019-02-27T22:31:14.482Z,6.33
2019-02-27T22:33:42.647Z,6.28
2019-02-27T22:36:13.579Z,6.55
2019-02-27T22:38:41.402Z,6.28
2019-02-27T22:41:10.184Z,6.80
2019-02-27T22:43:55.763Z,6.47
2019-02-27T22:46:25.221Z,7.17
2019-02-27T22:48:54.029Z,6.70
2019-02-27T22:51:22.352Z,6.30
2019-02-27T22:53:50.957Z,6.15
2019-02-27T22:56:19.439Z,6.10
2019-02-27T22:58:49.986Z,6.10
2019-02-27T23:01:29.578Z,5.62
2019-02-27T23:04:02.278Z,5.75
2019-02-27T23:06:30.466Z,5.75
2019-02-27T23:08:59.588Z,6.20
2019-02-27T23:11:28.487Z,6.53
2019-02-27T23:13:57.267Z,7.00
2019-02-27T23:16:29.732Z,7.25
2019-02-27T23:18:57.247Z,8.75
2019-02-27T23:21:27.539Z,8.50
2019-02-27T23:23:55.859Z,6.87
2019-02-27T23:26:24.063Z,6.87
2019-02-27T23:28:52.259Z,6.58
2019-02-27T23:31:23.308Z,7.00
2019-02-27T23:33:51.120Z,6.20
2019-02-27T23:36:22.118Z,6.10
2019-02-27T23:38:51.533Z,5.90
2019-02-27T23:41:23.163Z,5.97
2019-02-27T23:43:51.499Z,6.05
2019-02-27T23:46:19.561Z,6.62
2019-02-27T23:48:47.833Z,6.87
2019-02-27T23:51:17.011Z,6.83
2019-02-27T23:53:45.306Z,7.20
2019-02-27T23:56:19.280Z,7.20
2019-02-27T23:58:43.584Z,7.08
